Thursday, April 17, 2014, 8:16 PM EDT
Back to Local

KMTP, Montauk Airport

Location: Montauk, NY, United States Lat: 41.067
Local Time: 8:16 PM EDT ( 0:16 GMT) Lon: -71.917
Time Zone: US/Eastern Elev: 6 ft

Show me the last for .
Show Coded

Time T Td Feel RH Dir Speed Gust Alt SLP Vis Weather Sky Remarks
2014-04-17 19:54 40 29 30 64 60° 10 21 30.68 30.68 0 6-hr Min Temp (8pm): 39.9°F
6-hr Max Temp (8pm): 45.0°F
2014-04-17 18:54 41 28 32 59 70° 10 20 30.68 30.68 0 None
2014-04-17 17:54 43 28 34 55 70° 12 21 30.70 30.69 0 None
2014-04-17 16:54 43 28 33 55 70° 13 25 30.70 30.69 0 None
2014-04-17 15:54 44 28 35 53 80° 10 22 30.71 30.71 0 None
2014-04-17 14:54 45 27 36 48 80° 10 24 30.72 30.72 0 None
2014-04-17 13:54 44 27 35 50 70° 13 24 30.74 30.73 0 6-hr Min Temp (2pm): 37.9°F
6-hr Max Temp (2pm): 45.0°F
2014-04-17 12:54 44 27 35 50 50° 10 22 30.74 30.74 0 None
2014-04-17 11:54 43 25 34 48 60° 14 20 30.75 30.75 0 None
2014-04-17 10:54 42 24 33 48 60° 14 22 30.76 30.75 0 None
2014-04-17 09:54 41 26 32 54 50° 13 21 30.75 30.74 0 None
2014-04-17 08:54 39 26 29 59 50° 12 22 30.74 30.73 0 None
2014-04-17 07:54 38 26 27 61 40° 15 22 30.71 30.71 0 6-hr Min Temp (8am): 36.0°F
6-hr Max Temp (8am): 39.0°F
2014-04-17 06:54 36 25 24 63 30° 12 24 30.69 30.68 0 None
2014-04-17 05:54 36 23 25 58 30° 12 20 30.67 30.67 0 None
2014-04-17 04:54 36 22 25 56 30° 13 20 30.66 30.65 0 None
2014-04-17 03:54 37 19 30 47 40° 9 - 30.65 30.65 0 None
2014-04-17 02:54 38 19 28 46 40° 12 18 30.63 30.63 0 None
2014-04-17 01:54 39 21 29 48 50° 10 20 30.61 30.60 0 6-hr Min Temp (2am): 35.1°F
6-hr Max Temp (2am): 43.0°F
2014-04-17 00:54 39 22 34 49 40° 7 - 30.60 30.60 0 24-hr Min Temp (1am): 34.0°F
24-hr Max Temp (1am): 48.0°F
2014-04-16 23:54 40 21 34 46 30° 9 - 30.59 30.58 0 None
2014-04-16 22:54 41 22 37 46 50° 6 - 30.56 30.56 0 None
2014-04-16 21:54 42 23 36 46 30° 10 - 30.54 30.54 0 None
2014-04-16 20:54 35 25 - 66 - Calm - 30.52 30.52 0 None

Support USWX by starting your Amazon purchase here.